Terminal Aerodrome Forecast
Issued by NWS Mt. Holly, NJ

Current Version | Previous Version | Text Only | Print | Product List | Glossary On
Versions: 1 2 3 4 5 6 7 8 9 10 11 12 13 14 15 16 17 18 19 20 21 22 23 24 25
357
FTUS41 KPHI 192329
TAFRDG
TAF
KRDG 192329Z 2000/2024 VRB02KT P6SM BKN250
     FM201000 00000KT 4SM BR BKN015
     FM201600 12004KT 3SM -RA BR BKN010=

USA.gov is the U.S. government's official web portal to all federal, state and local government web resources and services.